sensor_id;sensor_type;location;lat;lon;timestamp;P1;durP1;ratioP1;P2;durP2;ratioP2
4096;SDS011;2062;50.694;7.246;2022-09-02T00:01:33;5.30;;;2.30;;
4096;SDS011;2062;50.694;7.246;2022-09-02T00:04:03;6.75;;;2.13;;
4096;SDS011;2062;50.694;7.246;2022-09-02T00:06:32;5.32;;;2.25;;
4096;SDS011;2062;50.694;7.246;2022-09-02T00:09:00;4.43;;;1.90;;
4096;SDS011;2062;50.694;7.246;2022-09-02T00:11:29;5.40;;;2.15;;
4096;SDS011;2062;50.694;7.246;2022-09-02T00:13:57;4.60;;;2.20;;
4096;SDS011;2062;50.694;7.246;2022-09-02T00:16:27;4.57;;;2.20;;
4096;SDS011;2062;50.694;7.246;2022-09-02T00:18:57;5.47;;;2.45;;
4096;SDS011;2062;50.694;7.246;2022-09-02T00:21:27;6.03;;;2.53;;
4096;SDS011;2062;50.694;7.246;2022-09-02T00:23:54;4.53;;;1.90;;
4096;SDS011;2062;50.694;7.246;2022-09-02T00:26:21;5.22;;;2.00;;
4096;SDS011;2062;50.694;7.246;2022-09-02T00:28:48;6.00;;;2.00;;
4096;SDS011;2062;50.694;7.246;2022-09-02T00:31:15;5.40;;;2.05;;
4096;SDS011;2062;50.694;7.246;2022-09-02T00:33:42;4.00;;;1.80;;
4096;SDS011;2062;50.694;7.246;2022-09-02T00:36:11;6.10;;;1.98;;
4096;SDS011;2062;50.694;7.246;2022-09-02T00:38:38;6.43;;;2.10;;
4096;SDS011;2062;50.694;7.246;2022-09-02T00:41:06;5.55;;;1.92;;
4096;SDS011;2062;50.694;7.246;2022-09-02T00:43:39;4.93;;;2.17;;
4096;SDS011;2062;50.694;7.246;2022-09-02T00:46:09;4.90;;;1.90;;
4096;SDS011;2062;50.694;7.246;2022-09-02T00:48:38;4.90;;;2.05;;
4096;SDS011;2062;50.694;7.246;2022-09-02T00:51:07;6.47;;;2.20;;
4096;SDS011;2062;50.694;7.246;2022-09-02T00:53:36;6.30;;;2.05;;
4096;SDS011;2062;50.694;7.246;2022-09-02T00:56:06;5.40;;;2.13;;
4096;SDS011;2062;50.694;7.246;2022-09-02T00:58:38;4.57;;;1.87;;
4096;SDS011;2062;50.694;7.246;2022-09-02T01:01:08;5.07;;;2.05;;
4096;SDS011;2062;50.694;7.246;2022-09-02T01:03:35;4.35;;;1.90;;
4096;SDS011;2062;50.694;7.246;2022-09-02T01:06:04;4.75;;;1.90;;
4096;SDS011;2062;50.694;7.246;2022-09-02T01:08:31;5.18;;;2.10;;
4096;SDS011;2062;50.694;7.246;2022-09-02T01:11:02;4.57;;;2.10;;
4096;SDS011;2062;50.694;7.246;2022-09-02T01:13:31;4.97;;;1.95;;
4096;SDS011;2062;50.694;7.246;2022-09-02T01:16:06;4.40;;;1.90;;
4096;SDS011;2062;50.694;7.246;2022-09-02T01:18:36;4.63;;;1.92;;
4096;SDS011;2062;50.694;7.246;2022-09-02T01:21:03;5.07;;;1.90;;
4096;SDS011;2062;50.694;7.246;2022-09-02T01:23:32;3.97;;;1.90;;
4096;SDS011;2062;50.694;7.246;2022-09-02T01:26:01;4.25;;;1.80;;
4096;SDS011;2062;50.694;7.246;2022-09-02T01:28:28;4.55;;;2.03;;
4096;SDS011;2062;50.694;7.246;2022-09-02T01:30:57;4.47;;;1.90;;
4096;SDS011;2062;50.694;7.246;2022-09-02T01:33:25;4.55;;;1.95;;
4096;SDS011;2062;50.694;7.246;2022-09-02T01:35:52;4.63;;;1.80;;
4096;SDS011;2062;50.694;7.246;2022-09-02T01:38:20;5.22;;;2.00;;
4096;SDS011;2062;50.694;7.246;2022-09-02T01:40:49;5.47;;;1.98;;
4096;SDS011;2062;50.694;7.246;2022-09-02T01:43:17;5.00;;;2.20;;
4096;SDS011;2062;50.694;7.246;2022-09-02T01:45:47;4.18;;;1.90;;
4096;SDS011;2062;50.694;7.246;2022-09-02T01:48:15;4.60;;;2.00;;
4096;SDS011;2062;50.694;7.246;2022-09-02T01:50:43;4.97;;;1.88;;
4096;SDS011;2062;50.694;7.246;2022-09-02T01:53:11;4.18;;;1.75;;
4096;SDS011;2062;50.694;7.246;2022-09-02T01:55:39;4.55;;;1.83;;
4096;SDS011;2062;50.694;7.246;2022-09-02T01:58:07;4.28;;;1.77;;
4096;SDS011;2062;50.694;7.246;2022-09-02T02:00:34;5.03;;;1.90;;
4096;SDS011;2062;50.694;7.246;2022-09-02T02:03:01;4.35;;;1.70;;
4096;SDS011;2062;50.694;7.246;2022-09-02T02:05:28;4.90;;;2.10;;
4096;SDS011;2062;50.694;7.246;2022-09-02T02:07:56;4.15;;;1.98;;
4096;SDS011;2062;50.694;7.246;2022-09-02T02:10:22;4.93;;;1.73;;
4096;SDS011;2062;50.694;7.246;2022-09-02T02:12:50;4.10;;;1.90;;
4096;SDS011;2062;50.694;7.246;2022-09-02T02:15:18;4.40;;;1.98;;
4096;SDS011;2062;50.694;7.246;2022-09-02T02:17:46;3.92;;;1.55;;
4096;SDS011;2062;50.694;7.246;2022-09-02T02:20:13;3.80;;;1.70;;
4096;SDS011;2062;50.694;7.246;2022-09-02T02:22:41;4.30;;;1.85;;
4096;SDS011;2062;50.694;7.246;2022-09-02T02:25:09;3.93;;;1.80;;
4096;SDS011;2062;50.694;7.246;2022-09-02T02:27:36;3.97;;;1.70;;
4096;SDS011;2062;50.694;7.246;2022-09-02T02:30:03;3.78;;;1.52;;
4096;SDS011;2062;50.694;7.246;2022-09-02T02:32:33;4.43;;;1.85;;
4096;SDS011;2062;50.694;7.246;2022-09-02T02:35:00;5.85;;;1.73;;
4096;SDS011;2062;50.694;7.246;2022-09-02T02:37:27;4.00;;;1.50;;
4096;SDS011;2062;50.694;7.246;2022-09-02T02:39:54;4.38;;;2.00;;
4096;SDS011;2062;50.694;7.246;2022-09-02T02:42:21;3.88;;;1.70;;
4096;SDS011;2062;50.694;7.246;2022-09-02T02:44:48;8.38;;;1.67;;
4096;SDS011;2062;50.694;7.246;2022-09-02T02:47:15;4.32;;;2.00;;
4096;SDS011;2062;50.694;7.246;2022-09-02T02:49:43;4.20;;;1.70;;
4096;SDS011;2062;50.694;7.246;2022-09-02T02:52:10;4.10;;;1.70;;
4096;SDS011;2062;50.694;7.246;2022-09-02T02:54:38;4.10;;;1.60;;
4096;SDS011;2062;50.694;7.246;2022-09-02T02:57:06;3.83;;;1.70;;
4096;SDS011;2062;50.694;7.246;2022-09-02T02:59:33;4.15;;;2.00;;
4096;SDS011;2062;50.694;7.246;2022-09-02T03:02:00;4.37;;;1.90;;
4096;SDS011;2062;50.694;7.246;2022-09-02T03:04:28;3.97;;;1.83;;
4096;SDS011;2062;50.694;7.246;2022-09-02T03:06:56;4.47;;;1.90;;
4096;SDS011;2062;50.694;7.246;2022-09-02T03:09:23;3.58;;;1.70;;
4096;SDS011;2062;50.694;7.246;2022-09-02T03:11:50;4.18;;;1.90;;
4096;SDS011;2062;50.694;7.246;2022-09-02T03:14:17;4.47;;;1.70;;
4096;SDS011;2062;50.694;7.246;2022-09-02T03:16:44;3.90;;;1.67;;
4096;SDS011;2062;50.694;7.246;2022-09-02T03:19:10;4.00;;;1.40;;
4096;SDS011;2062;50.694;7.246;2022-09-02T03:21:38;3.50;;;1.52;;
4096;SDS011;2062;50.694;7.246;2022-09-02T03:24:07;3.97;;;1.80;;
4096;SDS011;2062;50.694;7.246;2022-09-02T03:26:35;3.93;;;1.80;;
4096;SDS011;2062;50.694;7.246;2022-09-02T03:29:03;4.40;;;1.92;;
4096;SDS011;2062;50.694;7.246;2022-09-02T03:31:30;4.60;;;1.65;;
4096;SDS011;2062;50.694;7.246;2022-09-02T03:33:57;4.95;;;1.80;;
4096;SDS011;2062;50.694;7.246;2022-09-02T03:36:25;5.03;;;1.70;;
4096;SDS011;2062;50.694;7.246;2022-09-02T03:38:54;4.03;;;1.77;;
4096;SDS011;2062;50.694;7.246;2022-09-02T03:41:24;4.85;;;1.83;;
4096;SDS011;2062;50.694;7.246;2022-09-02T03:43:51;4.63;;;1.83;;
4096;SDS011;2062;50.694;7.246;2022-09-02T03:46:18;3.67;;;1.77;;
4096;SDS011;2062;50.694;7.246;2022-09-02T03:48:45;4.68;;;1.70;;
4096;SDS011;2062;50.694;7.246;2022-09-02T03:51:14;4.67;;;1.50;;
4096;SDS011;2062;50.694;7.246;2022-09-02T03:53:41;4.25;;;1.73;;
4096;SDS011;2062;50.694;7.246;2022-09-02T03:56:09;4.20;;;1.80;;
4096;SDS011;2062;50.694;7.246;2022-09-02T03:58:40;4.10;;;1.75;;
4096;SDS011;2062;50.694;7.246;2022-09-02T04:01:11;3.92;;;1.67;;
4096;SDS011;2062;50.694;7.246;2022-09-02T04:03:40;5.50;;;1.63;;
4096;SDS011;2062;50.694;7.246;2022-09-02T04:06:07;4.28;;;1.77;;
4096;SDS011;2062;50.694;7.246;2022-09-02T04:08:37;3.80;;;1.55;;
4096;SDS011;2062;50.694;7.246;2022-09-02T04:11:04;3.67;;;1.50;;
4096;SDS011;2062;50.694;7.246;2022-09-02T04:13:32;3.58;;;1.58;;
4096;SDS011;2062;50.694;7.246;2022-09-02T04:16:05;5.23;;;1.60;;
4096;SDS011;2062;50.694;7.246;2022-09-02T04:18:32;11.65;;;1.88;;
4096;SDS011;2062;50.694;7.246;2022-09-02T04:20:59;14.13;;;2.15;;
4096;SDS011;2062;50.694;7.246;2022-09-02T04:23:26;9.32;;;2.10;;
4096;SDS011;2062;50.694;7.246;2022-09-02T04:25:53;9.20;;;1.80;;
4096;SDS011;2062;50.694;7.246;2022-09-02T04:28:20;8.53;;;1.90;;
4096;SDS011;2062;50.694;7.246;2022-09-02T04:30:47;7.45;;;1.90;;
4096;SDS011;2062;50.694;7.246;2022-09-02T04:33:15;7.03;;;1.70;;
4096;SDS011;2062;50.694;7.246;2022-09-02T04:35:43;8.90;;;2.00;;
4096;SDS011;2062;50.694;7.246;2022-09-02T04:38:12;8.98;;;2.50;;
4096;SDS011;2062;50.694;7.246;2022-09-02T04:40:39;9.83;;;2.00;;
4096;SDS011;2062;50.694;7.246;2022-09-02T04:43:07;7.30;;;1.90;;
4096;SDS011;2062;50.694;7.246;2022-09-02T04:45:34;6.40;;;1.88;;
4096;SDS011;2062;50.694;7.246;2022-09-02T04:48:03;8.48;;;2.20;;
4096;SDS011;2062;50.694;7.246;2022-09-02T04:50:32;7.05;;;1.90;;
4096;SDS011;2062;50.694;7.246;2022-09-02T04:53:00;7.87;;;2.10;;
4096;SDS011;2062;50.694;7.246;2022-09-02T04:55:27;5.95;;;1.90;;
4096;SDS011;2062;50.694;7.246;2022-09-02T04:57:54;9.25;;;1.70;;
4096;SDS011;2062;50.694;7.246;2022-09-02T05:00:21;9.63;;;1.77;;
4096;SDS011;2062;50.694;7.246;2022-09-02T05:02:48;6.13;;;1.70;;
4096;SDS011;2062;50.694;7.246;2022-09-02T05:05:15;4.77;;;1.60;;
4096;SDS011;2062;50.694;7.246;2022-09-02T05:07:44;8.82;;;1.50;;
4096;SDS011;2062;50.694;7.246;2022-09-02T05:10:11;8.25;;;1.73;;
4096;SDS011;2062;50.694;7.246;2022-09-02T05:12:38;6.57;;;2.20;;
4096;SDS011;2062;50.694;7.246;2022-09-02T05:15:06;9.82;;;2.03;;
4096;SDS011;2062;50.694;7.246;2022-09-02T05:17:34;4.50;;;1.70;;
4096;SDS011;2062;50.694;7.246;2022-09-02T05:20:01;6.13;;;1.40;;
4096;SDS011;2062;50.694;7.246;2022-09-02T05:22:29;6.13;;;1.77;;
4096;SDS011;2062;50.694;7.246;2022-09-02T05:24:57;4.45;;;1.40;;
4096;SDS011;2062;50.694;7.246;2022-09-02T05:27:24;5.63;;;2.03;;
4096;SDS011;2062;50.694;7.246;2022-09-02T05:29:53;6.67;;;1.77;;
4096;SDS011;2062;50.694;7.246;2022-09-02T05:32:20;6.03;;;1.50;;
4096;SDS011;2062;50.694;7.246;2022-09-02T05:34:48;5.90;;;1.98;;
4096;SDS011;2062;50.694;7.246;2022-09-02T05:37:15;5.57;;;1.70;;
4096;SDS011;2062;50.694;7.246;2022-09-02T05:39:42;5.38;;;1.60;;
4096;SDS011;2062;50.694;7.246;2022-09-02T05:42:10;4.70;;;1.57;;
4096;SDS011;2062;50.694;7.246;2022-09-02T05:44:37;3.70;;;1.40;;
4096;SDS011;2062;50.694;7.246;2022-09-02T05:47:06;5.40;;;1.77;;
4096;SDS011;2062;50.694;7.246;2022-09-02T05:49:33;5.15;;;1.50;;
4096;SDS011;2062;50.694;7.246;2022-09-02T05:51:59;4.18;;;1.90;;
4096;SDS011;2062;50.694;7.246;2022-09-02T05:54:28;3.83;;;1.53;;
4096;SDS011;2062;50.694;7.246;2022-09-02T05:56:57;4.13;;;1.70;;
4096;SDS011;2062;50.694;7.246;2022-09-02T05:59:28;4.55;;;1.65;;
4096;SDS011;2062;50.694;7.246;2022-09-02T06:01:56;4.90;;;1.80;;
4096;SDS011;2062;50.694;7.246;2022-09-02T06:04:24;4.90;;;1.85;;
4096;SDS011;2062;50.694;7.246;2022-09-02T06:06:51;5.03;;;1.90;;
4096;SDS011;2062;50.694;7.246;2022-09-02T06:09:19;3.97;;;1.70;;
4096;SDS011;2062;50.694;7.246;2022-09-02T06:11:48;4.90;;;1.75;;
4096;SDS011;2062;50.694;7.246;2022-09-02T06:14:16;4.95;;;1.77;;
4096;SDS011;2062;50.694;7.246;2022-09-02T06:16:46;4.05;;;1.80;;
4096;SDS011;2062;50.694;7.246;2022-09-02T06:19:14;4.10;;;1.63;;
4096;SDS011;2062;50.694;7.246;2022-09-02T06:21:41;5.28;;;1.73;;
4096;SDS011;2062;50.694;7.246;2022-09-02T06:24:09;5.13;;;1.73;;
4096;SDS011;2062;50.694;7.246;2022-09-02T06:26:39;5.00;;;1.80;;
4096;SDS011;2062;50.694;7.246;2022-09-02T06:29:06;5.13;;;1.60;;
4096;SDS011;2062;50.694;7.246;2022-09-02T06:31:34;4.37;;;1.50;;
4096;SDS011;2062;50.694;7.246;2022-09-02T06:34:03;4.38;;;1.75;;
4096;SDS011;2062;50.694;7.246;2022-09-02T06:36:30;4.30;;;1.60;;
4096;SDS011;2062;50.694;7.246;2022-09-02T06:38:57;6.07;;;1.80;;
4096;SDS011;2062;50.694;7.246;2022-09-02T06:41:26;7.40;;;1.80;;
4096;SDS011;2062;50.694;7.246;2022-09-02T06:43:55;4.70;;;1.70;;
4096;SDS011;2062;50.694;7.246;2022-09-02T06:46:24;3.85;;;1.60;;
4096;SDS011;2062;50.694;7.246;2022-09-02T06:48:53;4.90;;;1.67;;
4096;SDS011;2062;50.694;7.246;2022-09-02T06:51:22;3.95;;;1.60;;
4096;SDS011;2062;50.694;7.246;2022-09-02T06:53:50;4.35;;;1.60;;
4096;SDS011;2062;50.694;7.246;2022-09-02T06:56:16;3.53;;;1.43;;
4096;SDS011;2062;50.694;7.246;2022-09-02T06:58:43;4.78;;;1.70;;
4096;SDS011;2062;50.694;7.246;2022-09-02T07:01:15;4.28;;;1.70;;
4096;SDS011;2062;50.694;7.246;2022-09-02T07:03:43;4.88;;;1.60;;
4096;SDS011;2062;50.694;7.246;2022-09-02T07:06:34;3.55;;;1.73;;
4096;SDS011;2062;50.694;7.246;2022-09-02T07:09:03;4.47;;;1.67;;
4096;SDS011;2062;50.694;7.246;2022-09-02T07:11:30;4.70;;;1.73;;
4096;SDS011;2062;50.694;7.246;2022-09-02T07:13:57;4.72;;;1.80;;
4096;SDS011;2062;50.694;7.246;2022-09-02T07:16:26;4.35;;;1.80;;
4096;SDS011;2062;50.694;7.246;2022-09-02T07:18:53;3.80;;;1.75;;
4096;SDS011;2062;50.694;7.246;2022-09-02T07:21:20;3.83;;;1.80;;
4096;SDS011;2062;50.694;7.246;2022-09-02T07:23:49;3.75;;;1.70;;
4096;SDS011;2062;50.694;7.246;2022-09-02T07:26:16;3.90;;;1.80;;
4096;SDS011;2062;50.694;7.246;2022-09-02T07:28:43;4.22;;;1.77;;
4096;SDS011;2062;50.694;7.246;2022-09-02T07:31:11;4.20;;;1.88;;
4096;SDS011;2062;50.694;7.246;2022-09-02T07:33:39;4.03;;;1.73;;
4096;SDS011;2062;50.694;7.246;2022-09-02T07:36:07;3.85;;;1.50;;
4096;SDS011;2062;50.694;7.246;2022-09-02T07:38:35;4.78;;;1.90;;
4096;SDS011;2062;50.694;7.246;2022-09-02T07:41:04;4.00;;;1.70;;
4096;SDS011;2062;50.694;7.246;2022-09-02T07:43:32;4.38;;;1.80;;
4096;SDS011;2062;50.694;7.246;2022-09-02T07:46:00;4.13;;;1.70;;
4096;SDS011;2062;50.694;7.246;2022-09-02T07:48:28;4.40;;;1.70;;
4096;SDS011;2062;50.694;7.246;2022-09-02T07:50:56;4.10;;;1.75;;
4096;SDS011;2062;50.694;7.246;2022-09-02T07:53:23;4.75;;;1.65;;
4096;SDS011;2062;50.694;7.246;2022-09-02T07:55:50;4.10;;;1.65;;
4096;SDS011;2062;50.694;7.246;2022-09-02T07:58:19;4.17;;;1.70;;
4096;SDS011;2062;50.694;7.246;2022-09-02T08:00:48;3.75;;;1.65;;
4096;SDS011;2062;50.694;7.246;2022-09-02T08:03:16;4.40;;;2.10;;
4096;SDS011;2062;50.694;7.246;2022-09-02T08:05:43;3.83;;;1.70;;
4096;SDS011;2062;50.694;7.246;2022-09-02T08:08:11;4.40;;;1.70;;
4096;SDS011;2062;50.694;7.246;2022-09-02T08:10:39;4.07;;;1.73;;
4096;SDS011;2062;50.694;7.246;2022-09-02T08:13:06;4.88;;;1.83;;
4096;SDS011;2062;50.694;7.246;2022-09-02T08:15:36;4.07;;;1.80;;
4096;SDS011;2062;50.694;7.246;2022-09-02T08:18:04;3.90;;;1.55;;
4096;SDS011;2062;50.694;7.246;2022-09-02T08:20:32;3.92;;;1.70;;
4096;SDS011;2062;50.694;7.246;2022-09-02T08:22:59;4.40;;;1.80;;
4096;SDS011;2062;50.694;7.246;2022-09-02T08:25:28;3.75;;;1.70;;
4096;SDS011;2062;50.694;7.246;2022-09-02T08:27:55;3.80;;;1.90;;
4096;SDS011;2062;50.694;7.246;2022-09-02T08:30:22;3.80;;;1.70;;
4096;SDS011;2062;50.694;7.246;2022-09-02T08:32:50;4.38;;;1.85;;
4096;SDS011;2062;50.694;7.246;2022-09-02T08:35:17;3.67;;;1.53;;
4096;SDS011;2062;50.694;7.246;2022-09-02T08:37:44;4.00;;;1.80;;
4096;SDS011;2062;50.694;7.246;2022-09-02T08:40:12;3.70;;;1.70;;
4096;SDS011;2062;50.694;7.246;2022-09-02T08:42:42;4.05;;;2.00;;
4096;SDS011;2062;50.694;7.246;2022-09-02T08:45:13;4.03;;;1.85;;
4096;SDS011;2062;50.694;7.246;2022-09-02T08:47:46;4.03;;;1.93;;
4096;SDS011;2062;50.694;7.246;2022-09-02T08:50:17;4.88;;;1.90;;
4096;SDS011;2062;50.694;7.246;2022-09-02T08:52:47;4.05;;;1.63;;
4096;SDS011;2062;50.694;7.246;2022-09-02T08:55:22;3.60;;;1.48;;
4096;SDS011;2062;50.694;7.246;2022-09-02T08:57:53;4.05;;;1.75;;
4096;SDS011;2062;50.694;7.246;2022-09-02T09:00:21;4.37;;;1.90;;
4096;SDS011;2062;50.694;7.246;2022-09-02T09:02:52;3.80;;;1.60;;
4096;SDS011;2062;50.694;7.246;2022-09-02T09:05:28;3.92;;;1.95;;
4096;SDS011;2062;50.694;7.246;2022-09-02T09:08:07;3.60;;;1.60;;
4096;SDS011;2062;50.694;7.246;2022-09-02T09:10:41;3.75;;;1.70;;
4096;SDS011;2062;50.694;7.246;2022-09-02T09:13:25;5.77;;;1.73;;
4096;SDS011;2062;50.694;7.246;2022-09-02T09:16:13;3.90;;;1.67;;
4096;SDS011;2062;50.694;7.246;2022-09-02T09:18:47;3.80;;;1.70;;
4096;SDS011;2062;50.694;7.246;2022-09-02T09:21:21;4.00;;;1.70;;
4096;SDS011;2062;50.694;7.246;2022-09-02T09:23:49;4.05;;;1.70;;
4096;SDS011;2062;50.694;7.246;2022-09-02T09:26:19;4.07;;;1.73;;
4096;SDS011;2062;50.694;7.246;2022-09-02T09:28:51;3.83;;;1.70;;
4096;SDS011;2062;50.694;7.246;2022-09-02T09:31:21;3.80;;;1.80;;
4096;SDS011;2062;50.694;7.246;2022-09-02T09:33:58;3.80;;;1.70;;
4096;SDS011;2062;50.694;7.246;2022-09-02T09:36:44;4.05;;;1.90;;
4096;SDS011;2062;50.694;7.246;2022-09-02T09:39:18;3.70;;;1.60;;
4096;SDS011;2062;50.694;7.246;2022-09-02T09:41:47;3.72;;;1.70;;
4096;SDS011;2062;50.694;7.246;2022-09-02T09:44:34;3.95;;;1.70;;
4096;SDS011;2062;50.694;7.246;2022-09-02T09:47:04;4.38;;;2.00;;
4096;SDS011;2062;50.694;7.246;2022-09-02T09:49:33;4.13;;;1.88;;
4096;SDS011;2062;50.694;7.246;2022-09-02T09:52:02;4.73;;;1.80;;
4096;SDS011;2062;50.694;7.246;2022-09-02T09:54:29;4.05;;;1.70;;
4096;SDS011;2062;50.694;7.246;2022-09-02T09:57:12;3.70;;;1.90;;
4096;SDS011;2062;50.694;7.246;2022-09-02T09:59:42;3.60;;;1.75;;
4096;SDS011;2062;50.694;7.246;2022-09-02T10:02:17;4.05;;;2.03;;
4096;SDS011;2062;50.694;7.246;2022-09-02T10:04:46;3.73;;;1.60;;
4096;SDS011;2062;50.694;7.246;2022-09-02T10:07:14;3.90;;;1.92;;
4096;SDS011;2062;50.694;7.246;2022-09-02T10:10:07;3.72;;;1.75;;
4096;SDS011;2062;50.694;7.246;2022-09-02T10:12:40;4.35;;;1.52;;
4096;SDS011;2062;50.694;7.246;2022-09-02T10:15:07;3.92;;;1.90;;
4096;SDS011;2062;50.694;7.246;2022-09-02T10:17:35;3.50;;;1.60;;
4096;SDS011;2062;50.694;7.246;2022-09-02T10:20:10;3.83;;;1.70;;
4096;SDS011;2062;50.694;7.246;2022-09-02T10:25:38;3.80;;;1.63;;
4096;SDS011;2062;50.694;7.246;2022-09-02T10:28:19;3.65;;;1.75;;
4096;SDS011;2062;50.694;7.246;2022-09-02T10:30:54;3.83;;;1.80;;
4096;SDS011;2062;50.694;7.246;2022-09-02T10:33:35;4.10;;;1.80;;
4096;SDS011;2062;50.694;7.246;2022-09-02T10:36:10;3.92;;;1.60;;
4096;SDS011;2062;50.694;7.246;2022-09-02T10:38:45;3.78;;;1.60;;
4096;SDS011;2062;50.694;7.246;2022-09-02T10:41:24;3.85;;;1.55;;
4096;SDS011;2062;50.694;7.246;2022-09-02T10:44:02;3.47;;;1.50;;
4096;SDS011;2062;50.694;7.246;2022-09-02T10:46:47;4.15;;;1.80;;
4096;SDS011;2062;50.694;7.246;2022-09-02T10:49:22;3.53;;;1.80;;
4096;SDS011;2062;50.694;7.246;2022-09-02T10:51:59;3.50;;;1.70;;
4096;SDS011;2062;50.694;7.246;2022-09-02T10:54:36;3.60;;;1.80;;
4096;SDS011;2062;50.694;7.246;2022-09-02T10:57:07;3.83;;;1.80;;
4096;SDS011;2062;50.694;7.246;2022-09-02T10:59:39;3.63;;;1.70;;
4096;SDS011;2062;50.694;7.246;2022-09-02T11:02:10;3.92;;;1.60;;
4096;SDS011;2062;50.694;7.246;2022-09-02T11:04:43;3.40;;;1.42;;
4096;SDS011;2062;50.694;7.246;2022-09-02T11:07:15;3.53;;;1.58;;
4096;SDS011;2062;50.694;7.246;2022-09-02T11:09:45;3.60;;;1.60;;
4096;SDS011;2062;50.694;7.246;2022-09-02T11:12:16;3.50;;;1.60;;
4096;SDS011;2062;50.694;7.246;2022-09-02T11:14:50;3.55;;;1.55;;
4096;SDS011;2062;50.694;7.246;2022-09-02T11:17:26;3.80;;;1.60;;
4096;SDS011;2062;50.694;7.246;2022-09-02T11:20:02;3.70;;;1.80;;
4096;SDS011;2062;50.694;7.246;2022-09-02T11:22:39;3.80;;;1.70;;
4096;SDS011;2062;50.694;7.246;2022-09-02T11:25:20;3.88;;;1.67;;
4096;SDS011;2062;50.694;7.246;2022-09-02T11:27:51;3.50;;;1.40;;
4096;SDS011;2062;50.694;7.246;2022-09-02T11:30:26;3.85;;;1.63;;
4096;SDS011;2062;50.694;7.246;2022-09-02T11:33:08;3.75;;;1.65;;
4096;SDS011;2062;50.694;7.246;2022-09-02T11:35:41;3.23;;;1.30;;
4096;SDS011;2062;50.694;7.246;2022-09-02T11:38:14;4.05;;;1.58;;
4096;SDS011;2062;50.694;7.246;2022-09-02T11:43:54;3.50;;;1.50;;
4096;SDS011;2062;50.694;7.246;2022-09-02T11:49:20;3.40;;;1.40;;
4096;SDS011;2062;50.694;7.246;2022-09-02T11:52:04;3.60;;;1.55;;
4096;SDS011;2062;50.694;7.246;2022-09-02T11:54:36;3.40;;;1.48;;
4096;SDS011;2062;50.694;7.246;2022-09-02T11:57:09;3.90;;;1.65;;
4096;SDS011;2062;50.694;7.246;2022-09-02T12:02:33;4.33;;;1.40;;
4096;SDS011;2062;50.694;7.246;2022-09-02T12:08:07;3.85;;;1.67;;
4096;SDS011;2062;50.694;7.246;2022-09-02T12:10:56;4.47;;;1.55;;
4096;SDS011;2062;50.694;7.246;2022-09-02T12:13:33;3.65;;;1.60;;
4096;SDS011;2062;50.694;7.246;2022-09-02T12:19:26;3.20;;;1.35;;
4096;SDS011;2062;50.694;7.246;2022-09-02T12:25:03;3.40;;;1.48;;
4096;SDS011;2062;50.694;7.246;2022-09-02T12:27:46;3.65;;;1.42;;
4096;SDS011;2062;50.694;7.246;2022-09-02T12:31:07;3.37;;;1.40;;
4096;SDS011;2062;50.694;7.246;2022-09-02T12:33:18;3.60;;;1.58;;
4096;SDS011;2062;50.694;7.246;2022-09-02T12:35:55;3.35;;;1.40;;
4096;SDS011;2062;50.694;7.246;2022-09-02T12:38:27;3.45;;;1.48;;
4096;SDS011;2062;50.694;7.246;2022-09-02T12:41:00;3.60;;;1.50;;
4096;SDS011;2062;50.694;7.246;2022-09-02T12:43:43;3.60;;;1.30;;
4096;SDS011;2062;50.694;7.246;2022-09-02T12:46:20;3.60;;;1.60;;
4096;SDS011;2062;50.694;7.246;2022-09-02T12:48:57;3.53;;;1.70;;
4096;SDS011;2062;50.694;7.246;2022-09-02T12:54:21;3.65;;;1.70;;
4096;SDS011;2062;50.694;7.246;2022-09-02T12:56:52;3.93;;;1.40;;
4096;SDS011;2062;50.694;7.246;2022-09-02T12:59:26;3.35;;;1.50;;
4096;SDS011;2062;50.694;7.246;2022-09-02T13:02:03;3.30;;;1.50;;
4096;SDS011;2062;50.694;7.246;2022-09-02T13:04:42;3.53;;;1.30;;
4096;SDS011;2062;50.694;7.246;2022-09-02T13:10:26;3.50;;;1.50;;
4096;SDS011;2062;50.694;7.246;2022-09-02T13:13:18;3.60;;;1.45;;
4096;SDS011;2062;50.694;7.246;2022-09-02T13:16:20;3.10;;;1.20;;
4096;SDS011;2062;50.694;7.246;2022-09-02T13:19:04;3.30;;;1.30;;
4096;SDS011;2062;50.694;7.246;2022-09-02T13:28:07;3.30;;;1.40;;
4096;SDS011;2062;50.694;7.246;2022-09-02T13:31:01;3.42;;;1.42;;
4096;SDS011;2062;50.694;7.246;2022-09-02T13:33:33;3.65;;;1.67;;
4096;SDS011;2062;50.694;7.246;2022-09-02T13:36:02;3.30;;;1.48;;
4096;SDS011;2062;50.694;7.246;2022-09-02T13:38:30;3.53;;;1.40;;
4096;SDS011;2062;50.694;7.246;2022-09-02T13:40:57;3.40;;;1.30;;
4096;SDS011;2062;50.694;7.246;2022-09-02T13:43:25;3.63;;;1.38;;
4096;SDS011;2062;50.694;7.246;2022-09-02T13:45:53;3.28;;;1.30;;
4096;SDS011;2062;50.694;7.246;2022-09-02T13:48:24;3.47;;;1.60;;
4096;SDS011;2062;50.694;7.246;2022-09-02T13:50:53;3.47;;;1.50;;
4096;SDS011;2062;50.694;7.246;2022-09-02T13:53:26;3.50;;;1.50;;
4096;SDS011;2062;50.694;7.246;2022-09-02T13:55:58;3.60;;;1.48;;
4096;SDS011;2062;50.694;7.246;2022-09-02T13:58:31;3.22;;;1.27;;
4096;SDS011;2062;50.694;7.246;2022-09-02T14:01:18;3.60;;;1.55;;
4096;SDS011;2062;50.694;7.246;2022-09-02T14:03:47;3.30;;;1.43;;
4096;SDS011;2062;50.694;7.246;2022-09-02T14:06:17;3.58;;;1.40;;
4096;SDS011;2062;50.694;7.246;2022-09-02T14:08:49;3.50;;;1.40;;
4096;SDS011;2062;50.694;7.246;2022-09-02T14:11:18;3.42;;;1.38;;
4096;SDS011;2062;50.694;7.246;2022-09-02T14:13:45;3.33;;;1.45;;
4096;SDS011;2062;50.694;7.246;2022-09-02T14:16:23;3.83;;;1.67;;
4096;SDS011;2062;50.694;7.246;2022-09-02T14:19:04;5.38;;;1.58;;
4096;SDS011;2062;50.694;7.246;2022-09-02T14:21:34;3.78;;;1.92;;
4096;SDS011;2062;50.694;7.246;2022-09-02T14:24:04;6.72;;;1.70;;
4096;SDS011;2062;50.694;7.246;2022-09-02T14:26:37;5.38;;;1.88;;
4096;SDS011;2062;50.694;7.246;2022-09-02T14:29:10;3.70;;;1.60;;
4096;SDS011;2062;50.694;7.246;2022-09-02T14:31:39;4.00;;;1.90;;
4096;SDS011;2062;50.694;7.246;2022-09-02T14:36:59;6.65;;;2.03;;
4096;SDS011;2062;50.694;7.246;2022-09-02T14:39:27;4.68;;;2.08;;
4096;SDS011;2062;50.694;7.246;2022-09-02T14:41:54;4.63;;;2.00;;
4096;SDS011;2062;50.694;7.246;2022-09-02T14:44:22;4.53;;;1.90;;
4096;SDS011;2062;50.694;7.246;2022-09-02T14:46:53;6.05;;;2.25;;
4096;SDS011;2062;50.694;7.246;2022-09-02T14:49:23;6.88;;;1.75;;
4096;SDS011;2062;50.694;7.246;2022-09-02T14:51:53;4.78;;;2.22;;
4096;SDS011;2062;50.694;7.246;2022-09-02T14:54:33;5.97;;;2.00;;
4096;SDS011;2062;50.694;7.246;2022-09-02T14:57:03;6.50;;;2.00;;
4096;SDS011;2062;50.694;7.246;2022-09-02T14:59:32;4.00;;;1.85;;
4096;SDS011;2062;50.694;7.246;2022-09-02T15:01:59;4.57;;;1.80;;
4096;SDS011;2062;50.694;7.246;2022-09-02T15:04:26;4.97;;;1.90;;
4096;SDS011;2062;50.694;7.246;2022-09-02T15:06:53;3.93;;;1.93;;
4096;SDS011;2062;50.694;7.246;2022-09-02T15:09:20;4.20;;;1.70;;
4096;SDS011;2062;50.694;7.246;2022-09-02T15:11:49;4.43;;;1.92;;
4096;SDS011;2062;50.694;7.246;2022-09-02T15:14:19;4.32;;;1.73;;
4096;SDS011;2062;50.694;7.246;2022-09-02T15:16:46;4.13;;;1.80;;
4096;SDS011;2062;50.694;7.246;2022-09-02T15:19:14;4.30;;;2.00;;
4096;SDS011;2062;50.694;7.246;2022-09-02T15:21:41;6.07;;;1.88;;
4096;SDS011;2062;50.694;7.246;2022-09-02T15:24:08;4.43;;;1.92;;
4096;SDS011;2062;50.694;7.246;2022-09-02T15:26:35;5.60;;;1.80;;
4096;SDS011;2062;50.694;7.246;2022-09-02T15:29:03;5.70;;;1.80;;
4096;SDS011;2062;50.694;7.246;2022-09-02T15:31:30;4.63;;;1.77;;
4096;SDS011;2062;50.694;7.246;2022-09-02T15:33:57;4.50;;;1.73;;
4096;SDS011;2062;50.694;7.246;2022-09-02T15:36:24;4.13;;;1.80;;
4096;SDS011;2062;50.694;7.246;2022-09-02T15:38:51;4.28;;;1.83;;
4096;SDS011;2062;50.694;7.246;2022-09-02T15:41:19;4.43;;;1.80;;
4096;SDS011;2062;50.694;7.246;2022-09-02T15:43:48;4.27;;;1.90;;
4096;SDS011;2062;50.694;7.246;2022-09-02T15:46:18;4.43;;;1.83;;
4096;SDS011;2062;50.694;7.246;2022-09-02T15:48:49;5.72;;;2.08;;
4096;SDS011;2062;50.694;7.246;2022-09-02T15:51:18;4.10;;;1.70;;
4096;SDS011;2062;50.694;7.246;2022-09-02T15:53:46;4.05;;;1.90;;
4096;SDS011;2062;50.694;7.246;2022-09-02T15:56:14;4.03;;;1.60;;
4096;SDS011;2062;50.694;7.246;2022-09-02T15:58:42;4.10;;;1.50;;
4096;SDS011;2062;50.694;7.246;2022-09-02T16:01:09;4.38;;;1.73;;
4096;SDS011;2062;50.694;7.246;2022-09-02T16:03:38;4.25;;;1.77;;
4096;SDS011;2062;50.694;7.246;2022-09-02T16:06:05;4.10;;;1.70;;
4096;SDS011;2062;50.694;7.246;2022-09-02T16:08:34;4.97;;;1.73;;
4096;SDS011;2062;50.694;7.246;2022-09-02T16:11:04;5.03;;;1.70;;